VOHY/HYD METAR and TAF weather

Enter ICAO airport designator
Station Type Date Time Source
VOHY METAR 2020/04/10 08:30 UTC NOAA

VOHY 100830Z 14005KT 6000 FEW020 SCT025 35/21 Q1015 NOSIG


Station Type Date Time Source
VOHY Decoded METAR 2020/04/10 08:30 UTC NOAA

Hyderabad Airport, India (VOHY) 17-27N 078-28E 545M
Apr 10, 2020 - 04:30 AM EDT / 2020.04.10 0830 UTC
Wind: from the SE (140 degrees) at 6 MPH (5 KT):0
Visibility: 3 mile(s):0
Sky conditions: partly cloudy
Temperature: 95 F (35 C)
Heat index: 101.3 F (38.5 C):1
Dew Point: 69 F (21 C)
Relative Humidity: 44%
Pressure (altimeter): 29.97 in. Hg (1015 hPa)
ob: VOHY 100830Z 14005KT 6000 FEW020 SCT025 35/21 Q1015 NOSIG
cycle: 8

Station Type Date Time Source
VOHY TAF 2020/03/24 06:00 UTC NOAA

TAF VOHY 240500Z 2406/2415 14006KT 6000 FEW015 SCT025
TEMPO 2409/2416 FEW030CB

Example: see airport list